Time;durP1;ratioP1;P1;durP2;ratioP2;P2;SDS_P1;SDS_P2;PMS_P1;PMS_P2;Temp;Humidity;BMP_temperature;BMP_pressure;BME280_temperature;BME280_humidity;BME280_pressure;Samples;Min_cycle;Max_cycle;Signal;HPM_P1;HPM_P2
2022/02/27 00:01:23;;;;;;;18.13;6.63;;;;;;;6.19;45.91;98783.00;5021337;28;20467;-74
2022/02/27 00:04:30;;;;;;;14.33;6.10;;;;;;;6.19;45.84;98778.63;5022232;28;20421;-76
2022/02/27 00:07:36;;;;;;;13.83;6.47;;;;;;;6.16;45.80;98773.59;5023631;28;20438;-73
2022/02/27 00:10:42;;;;;;;13.10;6.03;;;;;;;6.09;46.27;98780.06;5019227;28;20429;-73
2022/02/27 00:13:48;;;;;;;13.57;5.20;;;;;;;6.11;46.40;98770.41;5019527;28;20414;-73
2022/02/27 00:16:54;;;;;;;12.47;5.53;;;;;;;6.05;46.53;98771.59;5018646;28;20535;-73
2022/02/27 00:20:00;;;;;;;20.20;6.80;;;;;;;5.94;46.21;98779.13;5019309;28;20837;-73
2022/02/27 00:23:06;;;;;;;11.60;5.80;;;;;;;5.96;45.96;98793.72;5018549;28;20516;-72
2022/02/27 00:26:12;;;;;;;18.53;5.53;;;;;;;5.55;47.59;98794.19;5019152;28;20812;-75
2022/02/27 00:29:18;;;;;;;12.37;5.00;;;;;;;5.67;47.62;98792.72;5019314;28;20456;-74
2022/02/27 00:32:24;;;;;;;12.83;5.50;;;;;;;5.82;46.88;98785.81;5018677;28;20456;-75
2022/02/27 00:35:30;;;;;;;12.23;5.37;;;;;;;5.93;46.89;98785.25;5019325;28;20948;-74
2022/02/27 00:38:36;;;;;;;14.90;6.17;;;;;;;5.97;46.79;98781.56;5018934;28;20437;-73
2022/02/27 00:41:42;;;;;;;12.33;4.67;;;;;;;5.96;47.10;98779.88;5018657;28;20409;-72
2022/02/27 00:44:49;;;;;;;11.60;4.83;;;;;;;5.89;47.11;98784.59;5017246;28;21205;-74
2022/02/27 00:47:55;;;;;;;10.93;4.53;;;;;;;5.75;47.14;98793.13;5018697;28;20431;-73
2022/02/27 00:51:01;;;;;;;12.00;4.97;;;;;;;5.72;47.20;98789.84;5018467;28;20460;-75
2022/02/27 00:54:07;;;;;;;13.77;5.80;;;;;;;5.71;47.41;98788.16;5018815;28;20407;-73
2022/02/27 00:57:13;;;;;;;12.80;5.07;;;;;;;5.76;47.17;98788.78;5018934;28;20418;-73
2022/02/27 01:00:19;;;;;;;10.07;4.90;;;;;;;5.78;47.43;98789.53;5019162;28;20479;-72
2022/02/27 01:03:25;;;;;;;13.27;5.10;;;;;;;5.72;47.03;98789.84;5019068;28;21184;-74
2022/02/27 01:06:31;;;;;;;7.53;4.23;;;;;;;5.64;47.05;98785.91;5017309;28;20520;-75
2022/02/27 01:09:37;;;;;;;10.47;4.60;;;;;;;5.64;47.25;98783.31;5019903;28;20426;-74
2022/02/27 01:12:43;;;;;;;10.37;4.50;;;;;;;5.64;47.47;98783.31;5018091;28;20460;-74
2022/02/27 01:15:49;;;;;;;7.87;3.63;;;;;;;5.54;47.55;98780.34;5019969;28;20434;-73
2022/02/27 01:18:56;;;;;;;13.17;3.70;;;;;;;5.59;47.61;98772.31;4998771;28;20461;-74
2022/02/27 01:22:02;;;;;;;9.87;4.17;;;;;;;5.50;47.78;98775.41;4998418;28;20533;-72
2022/02/27 01:25:10;;;;;;;10.83;3.67;;;;;;;5.53;47.53;98773.47;4998545;28;20512;-71
2022/02/27 01:28:16;;;;;;;5.13;3.40;;;;;;;5.49;47.64;98778.94;5014030;28;20440;-73
2022/02/27 01:31:22;;;;;;;12.43;4.00;;;;;;;5.48;47.91;98772.03;5018406;28;20456;-73
2022/02/27 01:34:28;;;;;;;7.20;3.40;;;;;;;5.29;47.42;98762.63;5018589;28;20525;-72
2022/02/27 01:37:34;;;;;;;18.60;3.90;;;;;;;5.37;47.83;98757.84;5018765;28;20477;-71
2022/02/27 01:40:41;;;;;;;10.80;3.83;;;;;;;5.38;48.00;98754.34;5031919;28;20453;-74
2022/02/27 01:43:47;;;;;;;12.53;4.40;;;;;;;5.44;47.61;98749.72;5029569;28;20434;-75
2022/02/27 01:47:07;;;;;;;10.00;4.30;;;;;;;5.25;47.70;98750.69;5019724;28;20984;-73
2022/02/27 01:50:13;;;;;;;10.00;4.00;;;;;;;5.31;48.02;98745.16;5018086;28;20983;-74
2022/02/27 01:53:19;;;;;;;7.93;4.30;;;;;;;5.38;47.56;98746.53;5020188;28;20405;-74
2022/02/27 01:56:25;;;;;;;10.23;4.50;;;;;;;5.41;47.31;98740.31;5018800;28;21138;-75
2022/02/27 01:59:31;;;;;;;8.10;3.80;;;;;;;5.44;47.61;98739.31;5018045;28;20429;-73
2022/02/27 02:02:38;;;;;;;6.83;3.83;;;;;;;5.48;47.69;98743.44;5019034;28;20497;-73
2022/02/27 02:05:44;;;;;;;10.13;4.23;;;;;;;5.45;47.47;98738.38;5026576;28;20413;-74
2022/02/27 02:08:50;;;;;;;9.13;4.40;;;;;;;5.34;47.78;98746.78;5017145;28;21130;-73
2022/02/27 02:11:56;;;;;;;11.40;4.00;;;;;;;5.32;47.67;98741.66;4998918;28;20465;-74
2022/02/27 02:15:02;;;;;;;6.40;3.50;;;;;;;5.30;47.70;98748.69;5006018;28;20508;-74
2022/02/27 02:18:09;;;;;;;10.83;3.80;;;;;;;5.32;47.66;98739.03;5022031;28;20452;-73
2022/02/27 02:21:15;;;;;;;10.87;4.30;;;;;;;5.26;48.10;98741.97;5002913;28;20461;-74
2022/02/27 02:24:21;;;;;;;12.87;4.53;;;;;;;5.25;47.58;98731.66;5003198;28;20424;-73
2022/02/27 02:27:27;;;;;;;10.63;4.10;;;;;;;5.26;47.49;98731.59;5003910;28;20439;-75
2022/02/27 02:30:33;;;;;;;8.73;3.90;;;;;;;5.27;47.62;98727.22;5002813;28;20982;-74
2022/02/27 02:33:39;;;;;;;7.50;3.93;;;;;;;5.24;47.66;98733.41;5002547;28;20421;-74
2022/02/27 02:36:46;;;;;;;13.20;4.57;;;;;;;5.21;47.96;98734.44;5002592;28;20988;-72
2022/02/27 02:39:53;;;;;;;7.23;3.53;;;;;;;5.20;48.46;98724.09;5004431;28;20474;-73
2022/02/27 02:42:59;;;;;;;8.53;4.20;;;;;;;5.15;47.76;98724.34;5019859;28;20407;-73
2022/02/27 02:46:05;;;;;;;9.97;4.20;;;;;;;5.22;47.99;98728.31;5022294;28;20450;-74
2022/02/27 02:49:13;;;;;;;6.63;3.70;;;;;;;5.09;48.30;98722.09;5020609;28;20470;-74
2022/02/27 02:52:20;;;;;;;8.70;3.70;;;;;;;5.11;47.86;98714.19;5009361;28;20444;-74
2022/02/27 02:55:26;;;;;;;14.17;3.83;;;;;;;5.10;47.82;98720.31;5020194;28;20412;-75
2022/02/27 02:58:40;;;;;;;5.80;3.60;;;;;;;5.15;48.52;98718.31;5008399;28;20457;-72
2022/02/27 03:01:47;;;;;;;6.03;3.13;;;;;;;5.13;48.02;98713.19;5009309;28;20434;-74
2022/02/27 03:04:53;;;;;;;10.00;3.77;;;;;;;5.13;48.32;98713.19;5008746;28;21170;-74
2022/02/27 03:07:59;;;;;;;5.87;3.33;;;;;;;5.12;47.74;98708.91;5019719;28;20425;-74
2022/02/27 03:11:05;;;;;;;8.30;3.50;;;;;;;5.10;47.95;98709.91;5019831;28;20501;-75
2022/02/27 03:14:11;;;;;;;11.03;4.50;;;;;;;5.08;47.74;98708.22;5006880;28;20498;-74
2022/02/27 03:17:17;;;;;;;4.50;3.50;;;;;;;5.04;47.82;98704.09;5020644;28;20424;-75
2022/02/27 03:20:23;;;;;;;9.50;3.60;;;;;;;5.04;48.50;98695.47;5019745;28;20492;-75
2022/02/27 03:23:34;;;;;;;7.10;4.03;;;;;;;5.02;47.81;98703.38;5020962;28;20455;-75
2022/02/27 03:26:41;;;;;;;9.23;4.30;;;;;;;4.95;48.48;98702.00;5019448;28;20980;-75
2022/02/27 03:29:47;;;;;;;17.07;3.83;;;;;;;4.92;48.38;98700.41;5019839;28;20537;-74
2022/02/27 03:32:53;;;;;;;12.50;4.00;;;;;;;4.93;48.32;98698.63;5000380;28;20445;-75
2022/02/27 03:35:59;;;;;;;6.67;3.00;;;;;;;4.93;47.59;98703.81;4999717;28;20493;-76
2022/02/27 03:39:05;;;;;;;10.17;4.37;;;;;;;5.07;48.41;98698.75;5001659;28;20440;-75
2022/02/27 03:42:11;;;;;;;5.37;3.50;;;;;;;5.15;48.06;98702.72;4999243;28;20532;-75
2022/02/27 03:45:18;;;;;;;9.60;4.00;;;;;;;5.19;47.63;98693.81;4989381;28;21173;-76
2022/02/27 03:48:24;;;;;;;8.50;4.13;;;;;;;5.01;47.24;98709.47;5000729;28;20423;-76
2022/02/27 03:51:33;;;;;;;5.40;3.33;;;;;;;5.01;47.79;98706.03;4999958;28;21031;-76
2022/02/27 03:54:39;;;;;;;10.20;3.80;;;;;;;5.07;47.71;98713.53;4989965;28;20408;-75
2022/02/27 03:57:45;;;;;;;11.70;3.80;;;;;;;5.12;47.98;98719.28;5018187;28;20441;-75
2022/02/27 04:00:52;;;;;;;10.00;4.20;;;;;;;5.13;47.89;98717.56;5020213;28;20409;-74
2022/02/27 04:04:00;;;;;;;11.03;3.50;;;;;;;5.04;48.21;98706.69;5020129;28;20412;-75
2022/02/27 04:07:06;;;;;;;9.70;3.87;;;;;;;4.98;48.65;98721.81;5019924;28;20421;-74
2022/02/27 04:10:12;;;;;;;10.93;4.43;;;;;;;4.85;47.99;98716.38;5018970;28;20427;-75
2022/02/27 04:13:19;;;;;;;13.93;4.20;;;;;;;4.89;48.49;98715.31;5013132;28;20444;-74
2022/02/27 04:16:25;;;;;;;11.40;4.63;;;;;;;4.91;47.58;98719.50;5017962;28;20965;-74
2022/02/27 04:19:31;;;;;;;10.27;4.43;;;;;;;4.96;47.68;98724.47;5017977;28;20412;-73
2022/02/27 04:22:37;;;;;;;10.83;4.17;;;;;;;4.91;47.72;98721.28;5019685;28;21004;-73
2022/02/27 04:25:43;;;;;;;7.97;3.47;;;;;;;4.87;47.76;98723.19;5018755;28;20639;-74
2022/02/27 04:28:49;;;;;;;5.07;3.47;;;;;;;4.87;48.18;98724.94;5018737;28;21226;-74
2022/02/27 04:31:55;;;;;;;9.80;3.53;;;;;;;4.81;48.06;98728.69;5019975;28;20458;-74
2022/02/27 04:35:01;;;;;;;6.47;3.77;;;;;;;4.85;48.26;98724.19;5020746;28;20469;-75
2022/02/27 04:38:07;;;;;;;12.20;4.43;;;;;;;4.81;47.88;98726.09;5020832;28;20501;-74
2022/02/27 04:41:18;;;;;;;10.40;4.77;;;;;;;4.76;48.23;98726.34;5026175;28;20498;-74
2022/02/27 04:44:24;;;;;;;7.93;4.00;;;;;;;4.69;48.61;98732.75;5025137;28;20417;-75
2022/02/27 04:47:30;;;;;;;11.13;4.57;;;;;;;4.64;48.47;98721.78;5025643;28;20433;-75
2022/02/27 04:50:36;;;;;;;10.93;4.17;;;;;;;4.71;48.43;98725.72;5013795;28;20419;-74
2022/02/27 04:53:45;;;;;;;8.70;4.00;;;;;;;4.67;48.42;98734.59;5025495;28;20408;-74
2022/02/27 04:56:51;;;;;;;8.10;3.87;;;;;;;4.51;48.88;98736.28;5023180;28;20426;-75
2022/02/27 04:59:57;;;;;;;8.93;4.13;;;;;;;4.54;48.96;98730.91;5017821;28;21071;-74
2022/02/27 05:03:03;;;;;;;6.67;3.97;;;;;;;4.59;48.58;98732.41;5018534;28;20407;-72
2022/02/27 05:06:10;;;;;;;9.13;4.00;;;;;;;4.58;48.05;98727.25;5017509;28;20481;-73
2022/02/27 05:09:19;;;;;;;7.07;3.70;;;;;;;4.55;48.64;98724.81;5006449;28;20435;-76
2022/02/27 05:12:25;;;;;;;8.03;4.37;;;;;;;4.50;48.74;98726.81;5019485;28;21005;-74
2022/02/27 05:15:32;;;;;;;7.33;5.07;;;;;;;4.44;48.23;98726.19;4998967;28;20412;-74
2022/02/27 05:18:38;;;;;;;10.33;4.60;;;;;;;4.27;49.29;98726.19;5010496;28;20945;-74
2022/02/27 05:21:44;;;;;;;9.07;4.17;;;;;;;4.43;49.18;98724.50;5018377;28;20432;-74
2022/02/27 05:24:50;;;;;;;7.50;4.00;;;;;;;4.46;48.67;98731.31;5017761;28;21217;-73
2022/02/27 05:27:56;;;;;;;7.23;4.20;;;;;;;4.51;49.12;98738.88;5006796;28;20490;-72
2022/02/27 05:31:02;;;;;;;11.80;3.80;;;;;;;4.38;48.45;98734.31;5036680;28;20410;-74
2022/02/27 05:34:09;;;;;;;8.43;3.63;;;;;;;4.42;48.69;98735.81;5037700;28;20998;-73
2022/02/27 05:37:15;;;;;;;9.30;4.10;;;;;;;4.40;48.81;98740.25;5038084;28;20415;-72
2022/02/27 05:40:21;;;;;;;7.47;4.00;;;;;;;4.35;48.97;98744.81;5037466;28;21060;-74
2022/02/27 05:43:28;;;;;;;8.80;4.20;;;;;;;4.40;48.43;98748.06;5024462;28;20407;-74
2022/02/27 05:46:34;;;;;;;10.00;4.87;;;;;;;4.48;48.61;98749.41;5018924;28;20434;-73
2022/02/27 05:49:40;;;;;;;8.37;4.83;;;;;;;4.52;48.64;98740.56;5020202;28;20421;-75
2022/02/27 05:52:46;;;;;;;8.97;4.47;;;;;;;4.52;48.55;98751.78;5022164;28;20532;-73
2022/02/27 05:55:56;;;;;;;7.83;4.40;;;;;;;4.45;47.95;98750.41;5021366;28;20421;-75
2022/02/27 05:59:02;;;;;;;6.50;4.37;;;;;;;4.35;48.06;98750.03;5021615;28;20438;-75
2022/02/27 06:02:08;;;;;;;9.20;4.20;;;;;;;4.41;47.96;98754.91;5024322;28;20410;-74
2022/02/27 06:05:14;;;;;;;9.33;4.13;;;;;;;4.35;48.93;98747.44;5023219;28;20506;-75
2022/02/27 06:08:20;;;;;;;14.80;4.60;;;;;;;4.30;48.45;98762.38;5022452;28;20435;-74
2022/02/27 06:11:26;;;;;;;12.70;6.37;;;;;;;4.18;49.03;98769.00;5004199;28;20459;-75
2022/02/27 06:14:32;;;;;;;11.90;6.70;;;;;;;4.17;49.07;98766.47;5020842;28;20513;-75
2022/02/27 06:17:38;;;;;;;18.93;7.60;;;;;;;4.20;49.24;98776.72;5010408;28;20496;-75
2022/02/27 06:20:44;;;;;;;14.93;7.23;;;;;;;4.22;48.97;98774.91;5020727;28;20410;-75
2022/02/27 06:23:51;;;;;;;19.17;6.60;;;;;;;4.23;49.22;98779.19;5021199;28;20487;-76
2022/02/27 06:26:57;;;;;;;9.63;5.13;;;;;;;4.28;48.77;98782.41;5020374;28;20414;-75
2022/02/27 06:30:03;;;;;;;11.57;5.27;;;;;;;4.26;48.93;98782.47;5020335;28;20412;-75
2022/02/27 06:33:09;;;;;;;8.73;4.90;;;;;;;4.25;48.40;98790.31;5020211;28;21186;-75
2022/02/27 06:36:15;;;;;;;9.00;4.70;;;;;;;4.21;48.44;98788.78;5021130;28;20419;-75
2022/02/27 06:39:21;;;;;;;9.63;5.30;;;;;;;4.35;48.51;98788.97;5009921;28;20589;-75
2022/02/27 06:42:27;;;;;;;15.97;5.83;;;;;;;4.66;48.44;98782.28;5020229;28;20407;-74
2022/02/27 06:45:34;;;;;;;11.60;5.10;;;;;;;4.94;47.99;98783.47;5020859;28;20412;-74
2022/02/27 06:48:40;;;;;;;9.57;5.60;;;;;;;5.06;47.26;98793.22;5007168;28;20439;-75
2022/02/27 06:51:46;;;;;;;12.60;5.80;;;;;;;5.21;46.90;98790.78;5009149;28;20455;-74
2022/02/27 06:54:52;;;;;;;11.67;5.50;;;;;;;5.48;46.15;98796.28;5019547;28;20472;-75
2022/02/27 06:57:58;;;;;;;11.63;5.53;;;;;;;5.63;46.55;98791.19;5019749;28;20434;-75
2022/02/27 07:01:04;;;;;;;10.80;5.30;;;;;;;5.62;46.77;98794.69;5000401;28;20420;-74
2022/02/27 07:04:10;;;;;;;7.40;4.70;;;;;;;5.59;46.36;98795.72;5000944;28;20479;-74
2022/02/27 07:07:16;;;;;;;11.47;5.37;;;;;;;5.82;47.57;98791.03;5001428;28;20411;-74
2022/02/27 07:10:22;;;;;;;10.60;4.63;;;;;;;5.84;47.36;98791.78;5012463;28;21177;-74
2022/02/27 07:13:30;;;;;;;17.60;6.30;;;;;;;5.84;47.84;98797.84;5019274;28;20477;-74
2022/02/27 07:16:36;;;;;;;13.13;5.70;;;;;;;5.75;48.45;98802.72;5038898;28;20417;-74
2022/02/27 07:19:42;;;;;;;17.63;5.53;;;;;;;5.88;48.17;98801.13;5038427;28;20403;-74
2022/02/27 07:22:48;;;;;;;11.60;5.77;;;;;;;5.78;48.38;98807.75;5000222;28;20418;-74
2022/02/27 07:25:54;;;;;;;10.47;5.83;;;;;;;5.77;48.73;98804.28;5009915;28;20429;-72
2022/02/27 07:29:00;;;;;;;9.40;5.10;;;;;;;5.74;48.89;98814.03;5020349;28;20441;-73
2022/02/27 07:32:10;;;;;;;10.40;5.60;;;;;;;5.90;48.66;98807.09;5019142;28;20456;-74
2022/02/27 07:35:16;;;;;;;11.43;5.77;;;;;;;5.93;48.47;98809.50;5018905;28;20806;-74
2022/02/27 07:38:23;;;;;;;9.43;5.50;;;;;;;6.07;49.03;98807.94;5018832;28;20556;-73
2022/02/27 07:41:29;;;;;;;10.37;5.87;;;;;;;6.07;49.25;98807.94;5018417;28;20420;-72
2022/02/27 07:44:36;;;;;;;16.57;9.23;;;;;;;6.18;49.17;98813.38;5020221;28;20953;-74
2022/02/27 07:47:42;;;;;;;20.50;8.07;;;;;;;6.35;49.11;98809.00;5019783;28;20431;-71
2022/02/27 07:50:48;;;;;;;22.67;10.73;;;;;;;6.51;49.05;98814.19;5020765;28;20404;-74
2022/02/27 07:53:54;;;;;;;18.27;9.50;;;;;;;6.52;49.10;98816.72;5020230;28;20414;-75
2022/02/27 07:57:00;;;;;;;11.77;6.53;;;;;;;6.61;49.15;98825.78;5019480;28;20421;-75
2022/02/27 08:00:07;;;;;;;17.27;7.00;;;;;;;6.61;49.22;98831.00;5022369;28;20425;-70
2022/02/27 08:03:13;;;;;;;12.87;7.80;;;;;;;6.56;48.95;98833.00;5022769;28;20409;-72
2022/02/27 08:06:19;;;;;;;8.97;6.50;;;;;;;6.66;49.31;98834.16;5023938;28;20974;-73
2022/02/27 08:09:25;;;;;;;10.67;6.57;;;;;;;6.72;48.84;98831.22;5023969;28;20432;-72
2022/02/27 08:12:31;;;;;;;12.03;6.73;;;;;;;6.91;48.72;98831.00;5020658;28;21076;-73
2022/02/27 08:15:37;;;;;;;10.00;6.40;;;;;;;7.13;47.75;98831.47;5021945;28;20411;-73
2022/02/27 08:18:43;;;;;;;12.83;6.40;;;;;;;7.29;47.16;98837.47;5028350;28;20466;-75
2022/02/27 08:21:49;;;;;;;12.77;7.17;;;;;;;7.59;46.75;98833.09;5023839;28;20395;-73
2022/02/27 08:24:55;;;;;;;10.70;6.67;;;;;;;7.83;45.76;98846.44;5021412;28;20417;-74
2022/02/27 08:28:01;;;;;;;11.53;6.40;;;;;;;7.97;44.60;98840.34;5020658;28;20434;-74
2022/02/27 08:31:07;;;;;;;12.17;6.00;;;;;;;8.42;44.59;98840.16;5021654;28;20410;-74
2022/02/27 08:34:14;;;;;;;9.50;6.30;;;;;;;8.81;43.98;98837.69;5008203;28;20419;-74
2022/02/27 08:37:20;;;;;;;9.37;6.30;;;;;;;9.07;43.00;98828.09;5020371;28;21119;-73
2022/02/27 08:40:26;;;;;;;12.20;6.50;;;;;;;9.38;41.93;98833.91;5020082;28;20409;-75
2022/02/27 08:43:32;;;;;;;11.93;6.47;;;;;;;9.75;40.75;98835.72;5020013;28;21115;-74
2022/02/27 08:46:39;;;;;;;9.47;5.60;;;;;;;9.43;40.98;98828.34;5019442;28;20472;-75
2022/02/27 08:49:45;;;;;;;13.30;6.87;;;;;;;9.74;40.47;98834.06;5008620;28;20415;-74
2022/02/27 08:52:51;;;;;;;10.63;5.80;;;;;;;9.99;40.50;98839.25;5019573;28;20516;-73
2022/02/27 08:55:57;;;;;;;11.67;5.97;;;;;;;9.99;40.10;98838.41;5018595;28;20583;-74
2022/02/27 08:59:03;;;;;;;11.93;6.60;;;;;;;10.27;39.51;98837.28;5017192;28;20445;-74
2022/02/27 09:02:09;;;;;;;12.10;6.77;;;;;;;10.52;39.38;98837.31;5019047;28;20417;-74
2022/02/27 09:05:15;;;;;;;8.30;6.13;;;;;;;10.73;38.91;98829.66;5018336;28;20500;-75
2022/02/27 09:08:22;;;;;;;10.90;6.70;;;;;;;10.93;38.40;98828.16;5018765;28;20527;-74
2022/02/27 09:11:27;;;;;;;9.00;6.30;;;;;;;11.17;38.00;98833.38;4997261;28;20478;-75
2022/02/27 09:14:34;;;;;;;11.17;6.57;;;;;;;11.49;37.04;98837.94;5011496;28;20414;-76
2022/02/27 09:17:40;;;;;;;11.10;6.17;;;;;;;11.45;36.44;98833.03;5018827;28;20443;-75
2022/02/27 09:20:46;;;;;;;8.80;5.73;;;;;;;11.48;36.54;98825.75;5019428;28;21143;-75
2022/02/27 09:23:52;;;;;;;10.97;6.70;;;;;;;11.53;36.75;98834.13;5018055;28;20402;-72
2022/02/27 09:26:58;;;;;;;9.83;6.30;;;;;;;11.46;36.97;98835.56;5019644;28;20410;-73
2022/02/27 09:30:04;;;;;;;7.87;6.10;;;;;;;11.20;36.42;98821.78;5020241;28;20850;-74
2022/02/27 09:33:10;;;;;;;8.87;5.77;;;;;;;11.80;36.28;98825.06;4996704;28;20492;-73
2022/02/27 09:36:18;;;;;;;11.60;6.60;;;;;;;12.09;35.90;98824.56;4998695;28;20477;-73
2022/02/27 09:39:26;;;;;;;6.90;5.40;;;;;;;12.25;35.03;98821.56;4988809;28;20430;-74
2022/02/27 09:42:33;;;;;;;8.90;5.23;;;;;;;12.08;34.17;98815.03;5013119;28;20799;-71
2022/02/27 09:44:59;;;;;;;8.77;5.30;;;;;;;11.17;35.57;98811.53;5027874;28;20871;-71
2022/02/27 09:48:02;;;;;;;6.80;5.30;;;;;;;11.06;35.74;98815.78;5030286;28;20433;-73
2022/02/27 09:51:09;;;;;;;11.10;5.53;;;;;;;11.40;35.50;98812.38;5018027;28;20501;-75
2022/02/27 09:54:15;;;;;;;6.80;4.57;;;;;;;11.90;35.06;98804.16;5019553;28;20942;-73
2022/02/27 09:57:22;;;;;;;6.67;4.90;;;;;;;11.99;33.75;98813.09;5017031;28;20950;-73
2022/02/27 10:00:28;;;;;;;6.30;4.13;;;;;;;12.47;32.20;98813.72;5018665;28;20414;-73
2022/02/27 10:03:34;;;;;;;6.50;4.20;;;;;;;12.89;31.25;98811.97;5018852;28;20403;-75
2022/02/27 10:06:48;;;;;;;6.73;4.40;;;;;;;12.88;31.56;98819.97;5019485;28;20485;-75
2022/02/27 10:10:05;;;;;;;8.73;5.40;;;;;;;13.45;31.01;98806.50;5019125;28;20514;-74
2022/02/27 10:13:11;;;;;;;4.70;3.80;;;;;;;13.41;30.36;98815.63;5019196;28;20462;-74
2022/02/27 10:16:23;;;;;;;5.63;3.97;;;;;;;13.63;30.42;98815.44;5020315;28;20473;-75
2022/02/27 10:19:30;;;;;;;5.10;3.87;;;;;;;13.48;29.21;98812.34;5019408;28;20461;-74
2022/02/27 10:22:40;;;;;;;6.40;3.87;;;;;;;13.28;29.92;98802.66;5018866;28;20417;-75
2022/02/27 10:25:46;;;;;;;5.83;4.60;;;;;;;13.16;30.19;98801.88;5018262;28;20416;-75
2022/02/27 10:29:06;;;;;;;5.63;4.17;;;;;;;13.43;29.71;98803.97;5020524;28;20437;-75
2022/02/27 10:32:12;;;;;;;7.20;4.47;;;;;;;13.50;29.53;98801.66;5020037;28;20473;-75
2022/02/27 10:35:51;;;;;;;4.60;3.90;;;;;;;13.88;28.59;98794.84;5021445;28;20422;-74
2022/02/27 10:38:59;;;;;;;7.60;4.60;;;;;;;13.98;28.32;98802.81;5022334;28;20492;-75
2022/02/27 10:42:12;;;;;;;4.03;3.40;;;;;;;14.01;28.14;98796.41;5023451;28;20502;-75
2022/02/27 10:45:19;;;;;;;8.23;4.60;;;;;;;13.92;28.13;98784.91;5022983;28;20445;-75
2022/02/27 10:48:27;;;;;;;6.47;3.47;;;;;;;13.49;27.70;98790.31;5023365;28;20432;-76
2022/02/27 10:51:34;;;;;;;5.03;3.63;;;;;;;13.77;27.66;98781.78;5024414;28;20950;-75
2022/02/27 10:54:41;;;;;;;21.20;3.63;;;;;;;13.30;28.13;98785.75;5011894;28;20427;-74
2022/02/27 10:57:50;;;;;;;5.00;3.50;;;;;;;13.34;27.82;98778.41;5023361;28;20434;-75
2022/02/27 11:00:56;;;;;;;3.50;2.80;;;;;;;13.43;27.57;98775.00;5023090;28;20415;-76
2022/02/27 11:04:02;;;;;;;5.20;3.37;;;;;;;13.38;27.38;98764.03;5011048;28;20488;-75
2022/02/27 11:07:08;;;;;;;7.23;3.50;;;;;;;13.21;26.61;98768.13;5012684;28;20437;-73
2022/02/27 11:10:19;;;;;;;5.10;2.97;;;;;;;13.19;26.24;98776.13;5015953;28;20435;-73
2022/02/27 11:13:25;;;;;;;5.57;3.40;;;;;;;13.14;26.05;98773.06;5009682;28;20488;-74
2022/02/27 11:16:31;;;;;;;5.93;3.20;;;;;;;12.86;26.47;98764.00;5022026;28;21235;-73
2022/02/27 11:19:38;;;;;;;5.10;3.63;;;;;;;12.84;27.11;98763.34;5021774;28;20410;-75
2022/02/27 11:22:44;;;;;;;3.93;3.60;;;;;;;13.00;26.08;98771.59;5024235;28;20403;-74
2022/02/27 11:25:51;;;;;;;3.30;2.40;;;;;;;13.31;26.11;98757.59;5025585;28;20423;-73
2022/02/27 11:28:57;;;;;;;3.73;2.90;;;;;;;13.08;26.50;98756.97;5040112;28;20427;-73
2022/02/27 11:32:04;;;;;;;3.57;2.90;;;;;;;13.54;25.64;98753.03;5042785;28;20456;-75
2022/02/27 11:35:10;;;;;;;5.07;3.60;;;;;;;13.40;25.67;98746.31;5036223;28;20513;-74
2022/02/27 11:38:18;;;;;;;6.23;3.20;;;;;;;13.79;26.11;98750.88;5010915;28;20439;-74
2022/02/27 11:41:26;;;;;;;4.83;3.73;;;;;;;13.38;25.67;98737.69;5023460;28;20417;-74
2022/02/27 11:44:35;;;;;;;6.23;3.47;;;;;;;13.30;26.00;98746.25;5022882;28;21020;-75
2022/02/27 11:47:49;;;;;;;6.33;3.40;;;;;;;13.27;26.41;98735.16;5023155;28;20943;-75
2022/02/27 11:50:55;;;;;;;4.63;3.30;;;;;;;14.13;26.56;98732.91;5022518;28;20422;-75
2022/02/27 11:54:07;;;;;;;4.37;3.97;;;;;;;14.17;25.92;98720.28;5022922;28;20498;-74
2022/02/27 11:57:21;;;;;;;7.20;3.60;;;;;;;13.96;26.02;98733.56;5023467;28;20426;-74
2022/02/27 12:00:38;;;;;;;5.53;4.50;;;;;;;13.80;25.88;98737.56;5023732;28;20481;-73
2022/02/27 12:03:44;;;;;;;8.67;5.97;;;;;;;14.21;26.05;98715.53;5013412;28;20446;-74
2022/02/27 12:07:00;;;;;;;4.77;3.83;;;;;;;14.49;25.66;98708.59;5018624;28;20829;-75
2022/02/27 12:10:06;;;;;;;7.40;4.30;;;;;;;14.42;25.81;98704.84;5020719;28;20451;-75
2022/02/27 12:13:23;;;;;;;4.60;3.90;;;;;;;13.90;25.94;98702.50;5021079;28;20494;-76
2022/02/27 12:16:40;;;;;;;5.80;4.37;;;;;;;13.95;26.28;98698.47;5021129;28;20414;-74
2022/02/27 12:19:46;;;;;;;4.33;3.93;;;;;;;14.22;26.33;98694.34;5020987;28;20411;-74
2022/02/27 12:22:52;;;;;;;7.37;3.57;;;;;;;14.04;26.00;98695.97;5020285;28;20497;-75
2022/02/27 12:26:00;;;;;;;5.43;3.97;;;;;;;13.51;26.49;98708.50;5019300;28;20418;-74
2022/02/27 12:29:06;;;;;;;6.50;3.77;;;;;;;13.61;26.47;98700.63;5019085;28;21210;-73
2022/02/27 12:32:17;;;;;;;7.47;4.07;;;;;;;13.49;27.22;98692.00;5019620;28;20528;-74
2022/02/27 12:35:23;;;;;;;4.60;4.00;;;;;;;13.88;26.93;98692.06;5019178;28;20402;-75
2022/02/27 12:38:30;;;;;;;4.83;4.33;;;;;;;13.72;26.73;98691.78;5020495;28;20469;-76
2022/02/27 12:41:41;;;;;;;9.03;4.93;;;;;;;13.71;26.35;98687.50;5020551;28;20404;-75
2022/02/27 12:44:50;;;;;;;6.60;4.00;;;;;;;13.97;26.26;98683.38;5020605;28;20418;-74
2022/02/27 12:48:12;;;;;;;6.93;4.17;;;;;;;13.95;26.71;98687.94;5019199;28;20441;-76
2022/02/27 12:51:20;;;;;;;7.00;3.90;;;;;;;14.38;26.06;98693.75;5020603;28;20436;-77
2022/02/27 12:54:34;;;;;;;4.33;3.90;;;;;;;14.38;25.29;98675.28;5007530;28;20424;-74
2022/02/27 12:57:42;;;;;;;6.30;3.83;;;;;;;14.40;25.26;98685.69;5019545;28;20442;-76
2022/02/27 13:00:48;;;;;;;6.10;4.47;;;;;;;14.12;25.71;98683.78;5019290;28;20417;-74
2022/02/27 13:04:07;;;;;;;7.20;3.93;;;;;;;14.59;25.39;98679.56;5020726;28;21038;-76
2022/02/27 13:07:15;;;;;;;7.60;4.77;;;;;;;14.13;25.25;98684.59;5009233;28;20415;-74
2022/02/27 13:10:21;;;;;;;4.13;3.37;;;;;;;13.97;25.15;98680.72;5019419;28;21145;-76
2022/02/27 13:13:38;;;;;;;5.50;3.90;;;;;;;13.70;25.14;98684.00;5020755;28;20466;-74
2022/02/27 13:16:50;;;;;;;9.63;4.00;;;;;;;13.82;25.36;98700.53;5018818;28;20417;-75
2022/02/27 13:19:57;;;;;;;5.97;3.97;;;;;;;13.57;26.00;98668.47;5019941;28;21178;-73
2022/02/27 13:23:03;;;;;;;6.97;4.20;;;;;;;13.72;26.31;98673.34;5019532;28;20487;-74
2022/02/27 13:26:09;;;;;;;4.90;3.67;;;;;;;13.66;26.44;98664.19;5020350;28;20419;-72
2022/02/27 13:29:15;;;;;;;6.80;4.43;;;;;;;13.46;26.88;98664.13;5021434;28;20461;-72
2022/02/27 13:32:28;;;;;;;6.23;4.20;;;;;;;13.37;27.39;98672.81;5020985;28;20462;-73
2022/02/27 13:35:34;;;;;;;6.97;4.40;;;;;;;13.68;26.26;98659.59;4989540;28;20420;-76
2022/02/27 13:38:40;;;;;;;6.63;3.87;;;;;;;13.44;26.10;98659.97;5000559;28;20434;-75
2022/02/27 13:41:46;;;;;;;7.43;4.50;;;;;;;13.51;26.57;98661.09;5001417;28;20418;-75
2022/02/27 13:44:53;;;;;;;5.20;4.37;;;;;;;13.78;26.25;98660.47;5000603;28;20416;-75
2022/02/27 13:48:04;;;;;;;6.30;3.93;;;;;;;13.49;26.19;98660.38;5000399;28;20440;-75
2022/02/27 13:51:25;;;;;;;5.00;4.30;;;;;;;14.18;26.18;98656.03;4999722;28;20504;-76
2022/02/27 13:54:31;;;;;;;8.13;4.00;;;;;;;13.80;26.18;98658.50;4987978;28;21051;-77
2022/02/27 13:57:37;;;;;;;5.50;4.07;;;;;;;13.78;26.83;98654.34;5000595;28;20902;-76
2022/02/27 14:00:54;;;;;;;11.40;5.50;;;;;;;13.92;27.45;98642.59;5003519;28;20423;-74
2022/02/27 14:04:03;;;;;;;6.13;3.97;;;;;;;13.78;26.59;98649.06;4999199;28;20420;-75
2022/02/27 14:07:15;;;;;;;7.03;4.57;;;;;;;13.84;26.99;98645.91;4998496;28;20426;-75
2022/02/27 14:10:27;;;;;;;12.10;8.40;;;;;;;13.86;26.18;98645.75;5010622;28;20489;-76
2022/02/27 14:13:34;;;;;;;10.50;6.97;;;;;;;13.77;26.51;98642.13;5022489;28;21142;-76
2022/02/27 14:16:42;;;;;;;21.33;9.77;;;;;;;13.63;27.39;98638.94;5021255;28;21220;-76
2022/02/27 14:19:48;;;;;;;19.47;11.60;;;;;;;14.05;27.73;98639.66;5021237;28;20424;-74
2022/02/27 14:23:06;;;;;;;12.90;9.23;;;;;;;13.94;25.40;98637.97;5021539;28;20501;-74
2022/02/27 14:26:15;;;;;;;19.50;14.57;;;;;;;13.32;25.85;98641.63;5020700;28;20442;-74
2022/02/27 14:29:21;;;;;;;5.67;3.80;;;;;;;13.47;26.21;98641.28;5009894;28;20442;-75
2022/02/27 14:32:33;;;;;;;4.10;3.70;;;;;;;13.33;26.21;98629.28;5021496;28;20477;-75
2022/02/27 14:35:41;;;;;;;4.93;4.43;;;;;;;13.39;25.89;98614.75;5019500;28;20420;-75
2022/02/27 14:38:47;;;;;;;6.77;4.23;;;;;;;12.99;25.30;98632.25;5020719;28;21162;-75
2022/02/27 14:41:53;;;;;;;9.97;7.57;;;;;;;13.02;26.45;98638.06;5020568;28;20405;-76